createdAt,value
2023-05-14T00:04:22.734Z,99964.44
2023-05-14T00:09:25.170Z,99962.75
2023-05-14T00:14:29.296Z,99938.28
2023-05-14T00:19:31.774Z,99922.59
2023-05-14T00:24:34.816Z,99907.72
2023-05-14T00:29:37.309Z,99914.72
2023-05-14T00:34:39.790Z,99965.44
2023-05-14T00:39:43.413Z,99907.72
2023-05-14T00:44:45.845Z,99959.31
2023-05-14T00:49:48.482Z,99931.31
2023-05-14T00:54:51.052Z,99940.06
2023-05-14T00:59:53.585Z,99975.00
2023-05-14T01:04:56.507Z,99969.75
2023-05-14T01:10:07.364Z,99943.47
2023-05-14T01:15:20.652Z,99903.19
2023-05-14T01:20:27.433Z,99926.75
2023-05-14T01:25:31.047Z,99959.97
2023-05-14T01:31:02.111Z,99979.19
2023-05-14T01:36:05.677Z,100001.03
2023-05-14T01:41:08.168Z,100021.94
2023-05-14T01:46:10.673Z,100004.41
2023-05-14T01:51:15.131Z,100019.25
2023-05-14T01:56:22.116Z,99939.53
2023-05-14T02:01:26.540Z,100022.66
2023-05-14T02:06:29.184Z,100007.69
2023-05-14T02:11:31.821Z,99962.13
2023-05-14T02:16:34.509Z,99968.19
2023-05-14T02:21:37.049Z,99956.75
2023-05-14T02:26:39.839Z,100037.34
2023-05-14T02:31:42.349Z,100038.19
2023-05-14T02:36:44.786Z,100002.28
2023-05-14T02:41:47.173Z,99954.13
2023-05-14T02:46:49.702Z,99994.34
2023-05-14T02:51:52.179Z,100020.72
2023-05-14T02:56:54.616Z,100021.63
2023-05-14T03:01:57.094Z,100055.75
2023-05-14T03:06:59.965Z,100010.28
2023-05-14T03:12:02.462Z,99967.34
2023-05-14T03:17:05.095Z,100065.47
2023-05-14T03:22:07.517Z,100062.91
2023-05-14T03:27:09.928Z,100025.28
2023-05-14T03:32:12.374Z,99977.22
2023-05-14T03:37:14.834Z,100049.06
2023-05-14T03:42:17.335Z,100076.28
2023-05-14T03:47:19.982Z,100055.31
2023-05-14T03:52:22.444Z,100078.13
2023-05-14T03:57:25.013Z,100082.59
2023-05-14T04:02:27.425Z,100068.59
2023-05-14T04:07:31.309Z,100048.50
2023-05-14T04:12:33.851Z,100002.16
2023-05-14T04:17:36.473Z,99968.06
2023-05-14T04:22:38.970Z,100072.13
2023-05-14T04:27:41.446Z,100095.75
2023-05-14T04:32:44.754Z,100067.72
2023-05-14T04:37:47.199Z,100079.91
2023-05-14T04:42:49.830Z,100094.78
2023-05-14T04:47:52.724Z,99997.66
2023-05-14T04:52:56.399Z,100082.41
2023-05-14T04:57:58.826Z,100080.59
2023-05-14T05:03:01.485Z,100003.59
2023-05-14T05:08:04.034Z,100069.97
2023-05-14T05:13:06.414Z,100043.59
2023-05-14T05:18:09.121Z,100055.69
2023-05-14T05:23:11.762Z,100002.28
2023-05-14T05:28:14.374Z,100079.03
2023-05-14T05:33:16.925Z,100025.59
2023-05-14T05:38:19.543Z,100038.56
2023-05-14T05:43:22.128Z,100018.22
2023-05-14T05:48:24.613Z,100066.91
2023-05-14T05:53:27.664Z,100045.72
2023-05-14T05:58:30.251Z,99987.84
2023-05-14T06:03:32.713Z,100059.19
2023-05-14T06:08:35.185Z,100068.59
2023-05-14T06:13:37.653Z,100026.38
2023-05-14T06:18:40.200Z,100001.75
2023-05-14T06:23:42.678Z,100004.97
2023-05-14T06:28:45.329Z,100048.31
2023-05-14T06:33:47.920Z,100029.09
2023-05-14T06:38:50.432Z,100053.56
2023-05-14T06:43:52.928Z,100008.84
2023-05-14T06:48:57.998Z,100013.84
2023-05-14T06:54:01.763Z,100027.66
2023-05-14T06:59:04.244Z,99997.34
2023-05-14T07:04:06.850Z,100045.72
2023-05-14T07:09:09.346Z,100002.28
2023-05-14T07:14:11.865Z,100040.03
2023-05-14T07:19:14.470Z,100020.00
2023-05-14T07:24:17.001Z,100023.47
2023-05-14T07:29:20.094Z,100034.94
2023-05-14T07:34:22.651Z,100041.16
2023-05-14T07:39:26.429Z,100097.97
2023-05-14T07:44:28.923Z,100105.94
2023-05-14T07:49:34.896Z,100033.44
2023-05-14T07:54:37.428Z,100097.91
2023-05-14T08:00:03.294Z,100094.25
2023-05-14T08:05:15.724Z,100095.41
2023-05-14T08:10:18.328Z,100095.22
2023-05-14T08:15:22.044Z,100057.00
2023-05-14T08:20:24.884Z,100111.00
2023-05-14T08:25:27.562Z,100078.47
2023-05-14T08:30:30.111Z,100088.06
2023-05-14T08:35:33.301Z,99994.69
2023-05-14T08:40:36.855Z,100097.56
2023-05-14T08:45:40.876Z,100096.56
2023-05-14T08:50:44.014Z,100070.25
2023-05-14T08:55:47.621Z,100084.13
2023-05-14T09:00:51.255Z,100074.56
2023-05-14T09:05:54.314Z,100069.00
2023-05-14T09:10:56.951Z,100089.50
2023-05-14T09:15:59.515Z,100061.31
2023-05-14T09:21:03.014Z,100042.84
2023-05-14T09:26:06.484Z,100027.78
2023-05-14T09:31:10.239Z,100053.94
2023-05-14T09:36:12.849Z,100033.94
2023-05-14T09:41:15.280Z,100072.91
2023-05-14T09:46:18.141Z,100055.38
2023-05-14T09:51:21.460Z,100059.06
2023-05-14T09:56:23.987Z,100075.56
2023-05-14T10:01:27.398Z,100082.47
2023-05-14T10:06:39.563Z,100026.06
2023-05-14T10:11:45.393Z,100081.19
2023-05-14T10:16:50.655Z,100079.63
2023-05-14T10:21:58.177Z,100073.53
2023-05-14T10:27:02.157Z,100069.78
2023-05-14T10:32:09.422Z,100041.56
2023-05-14T10:37:21.457Z,100071.13
2023-05-14T10:42:25.172Z,100047.69
2023-05-14T10:47:32.346Z,100071.34
2023-05-14T10:52:36.508Z,100077.72
2023-05-14T10:57:40.267Z,100068.19
2023-05-14T11:02:44.455Z,100015.97
2023-05-14T11:07:49.171Z,100058.91
2023-05-14T11:12:52.537Z,100069.41
2023-05-14T11:17:55.558Z,100030.28
2023-05-14T11:22:58.151Z,100005.81
2023-05-14T11:28:01.343Z,100049.44
2023-05-14T11:33:04.155Z,100071.34
2023-05-14T11:38:07.991Z,100058.13
2023-05-14T11:43:11.862Z,100050.19
2023-05-14T11:48:15.383Z,100060.75
2023-05-14T11:53:26.529Z,100049.88
2023-05-14T11:58:32.959Z,100032.94
2023-05-14T12:03:35.853Z,100013.09
2023-05-14T12:08:38.523Z,100055.91
2023-05-14T12:13:41.225Z,100021.00
2023-05-14T12:18:43.903Z,100038.66
2023-05-14T12:23:46.576Z,100042.88
2023-05-14T12:28:49.373Z,99953.25
2023-05-14T12:33:52.043Z,99943.66
2023-05-14T12:39:05.796Z,100015.75
2023-05-14T12:44:08.420Z,99956.34
2023-05-14T12:49:11.633Z,100046.06
2023-05-14T12:54:16.176Z,99994.09
2023-05-14T12:59:18.875Z,99948.84
2023-05-14T13:04:21.434Z,100002.13
2023-05-14T13:09:25.110Z,99892.47
2023-05-14T13:14:27.632Z,100044.91
2023-05-14T13:19:30.143Z,100031.72
2023-05-14T13:24:32.677Z,100042.16
2023-05-14T13:29:35.225Z,100042.91
2023-05-14T13:34:37.812Z,100003.75
2023-05-14T13:39:41.136Z,99923.78
2023-05-14T13:44:43.932Z,100053.75
2023-05-14T13:49:46.658Z,100055.63
2023-05-14T13:54:51.845Z,100018.25
2023-05-14T13:59:55.605Z,100018.25
2023-05-14T14:04:58.215Z,100034.03
2023-05-14T14:10:01.976Z,99999.19
2023-05-14T14:15:08.092Z,100009.66
2023-05-14T14:20:11.213Z,99964.38
2023-05-14T14:25:13.761Z,100034.06
2023-05-14T14:30:17.878Z,100052.44
2023-05-14T14:35:20.768Z,100012.41
2023-05-14T14:40:24.235Z,100019.41
2023-05-14T14:45:26.828Z,100041.16
2023-05-14T14:50:29.589Z,100048.19
2023-05-14T14:55:32.120Z,100028.22
2023-05-14T15:00:34.881Z,99974.38
2023-05-14T15:05:37.618Z,99907.53
2023-05-14T15:10:41.544Z,99972.94
2023-05-14T15:15:44.255Z,100062.72
2023-05-14T15:20:46.860Z,100037.53
2023-05-14T15:25:50.320Z,99960.03
2023-05-14T15:30:53.306Z,100056.03
2023-05-14T15:35:58.408Z,100038.47
2023-05-14T15:41:01.126Z,100043.84
2023-05-14T15:46:03.918Z,99987.28
2023-05-14T15:51:06.723Z,99938.47
2023-05-14T15:56:09.411Z,100030.91
2023-05-14T16:01:11.961Z,99961.09
2023-05-14T16:06:14.400Z,99996.06
2023-05-14T16:11:16.910Z,100022.44
2023-05-14T16:16:21.088Z,100040.81
2023-05-14T16:21:23.666Z,100037.44
2023-05-14T16:26:26.898Z,100013.13
2023-05-14T16:31:29.540Z,100036.97
2023-05-14T16:36:32.765Z,99944.69
2023-05-14T16:41:36.272Z,99914.44
2023-05-14T16:46:38.883Z,100046.25
2023-05-14T16:51:43.506Z,100041.94
2023-05-14T16:56:48.757Z,99957.41
2023-05-14T17:01:51.448Z,100029.81
2023-05-14T17:06:54.011Z,100067.53
2023-05-14T17:11:56.635Z,100010.03
2023-05-14T17:16:59.237Z,100071.28
2023-05-14T17:22:01.830Z,100037.34
2023-05-14T17:27:04.958Z,100069.91
2023-05-14T17:32:07.975Z,100002.72
2023-05-14T17:37:10.607Z,100078.88
2023-05-14T17:42:13.100Z,100077.25
2023-05-14T17:47:15.838Z,100043.28
2023-05-14T17:52:19.646Z,100020.69
2023-05-14T17:57:23.206Z,100089.72
2023-05-14T18:02:26.150Z,100080.25
2023-05-14T18:07:29.613Z,100064.59
2023-05-14T18:12:32.204Z,100105.75
2023-05-14T18:17:34.965Z,100006.25
2023-05-14T18:22:39.646Z,100076.28
2023-05-14T18:27:45.318Z,100093.81
2023-05-14T18:32:48.443Z,100094.75
2023-05-14T18:37:51.233Z,100120.16
2023-05-14T18:42:56.966Z,100110.56
2023-05-14T18:47:59.780Z,100092.22
2023-05-14T18:53:02.396Z,100121.09
2023-05-14T18:58:10.020Z,100123.78
2023-05-14T19:03:15.990Z,100058.13
2023-05-14T19:08:20.037Z,100096.66
2023-05-14T19:13:22.909Z,100068.59
2023-05-14T19:18:25.578Z,100035.31
2023-05-14T19:23:28.158Z,100058.06
2023-05-14T19:28:32.960Z,100114.06
2023-05-14T19:33:38.556Z,100094.72
2023-05-14T19:38:41.364Z,100124.44
2023-05-14T19:43:43.785Z,100131.41
2023-05-14T19:48:46.366Z,100112.97
2023-05-14T19:53:49.208Z,100126.94
2023-05-14T19:58:53.314Z,100088.31
2023-05-14T20:03:55.875Z,100075.13
2023-05-14T20:08:58.331Z,100124.16
2023-05-14T20:14:02.071Z,100126.72
2023-05-14T20:19:05.317Z,100127.47
2023-05-14T20:24:08.081Z,100132.69
2023-05-14T20:29:14.702Z,100117.69
2023-05-14T20:34:19.479Z,100105.38
2023-05-14T20:39:22.505Z,100122.84
2023-05-14T20:44:25.007Z,100132.38
2023-05-14T20:49:28.243Z,100127.94
2023-05-14T20:54:31.248Z,100102.38
2023-05-14T20:59:33.855Z,100094.34
2023-05-14T21:04:36.461Z,100130.25
2023-05-14T21:09:39.291Z,100141.47
2023-05-14T21:14:42.740Z,100133.56
2023-05-14T21:19:45.482Z,100134.34
2023-05-14T21:24:47.931Z,99994.84
2023-05-14T21:29:50.372Z,100107.84
2023-05-14T21:34:52.928Z,100141.03
2023-05-14T21:39:55.591Z,100118.22
2023-05-14T21:44:58.312Z,100133.06
2023-05-14T21:50:00.799Z,100073.34
2023-05-14T21:55:03.379Z,99970.66
2023-05-14T22:00:13.298Z,100127.56
2023-05-14T22:05:17.899Z,100133.59
2023-05-14T22:10:20.506Z,100138.75
2023-05-14T22:15:23.620Z,100026.41
2023-05-14T22:20:26.368Z,100076.25
2023-05-14T22:25:28.892Z,100136.66
2023-05-14T22:30:31.285Z,100124.34
2023-05-14T22:35:33.885Z,100079.38
2023-05-14T22:40:36.792Z,100120.41
2023-05-14T22:45:39.315Z,100088.81
2023-05-14T22:50:41.949Z,100138.72
2023-05-14T22:55:44.491Z,100034.94
2023-05-14T23:00:47.048Z,100140.06
2023-05-14T23:05:49.734Z,100085.50
2023-05-14T23:10:52.351Z,100111.75
2023-05-14T23:15:55.020Z,100045.81
2023-05-14T23:20:57.951Z,100089.56
2023-05-14T23:26:00.483Z,100143.84
2023-05-14T23:31:03.051Z,100148.97
2023-05-14T23:36:05.786Z,100131.25
2023-05-14T23:41:08.289Z,100126.88
2023-05-14T23:46:11.001Z,100099.47
2023-05-14T23:51:13.499Z,100098.53
2023-05-14T23:56:16.408Z,100148.47
